createdAt,value
2023-02-06T00:02:28.294Z,104581.34
2023-02-06T00:05:15.512Z,104581.34
2023-02-06T00:08:01.775Z,104583.13
2023-02-06T00:10:47.439Z,104573.50
2023-02-06T00:13:33.270Z,104574.38
2023-02-06T00:16:19.756Z,104574.41
2023-02-06T00:19:05.582Z,104574.38
2023-02-06T00:21:52.480Z,104563.88
2023-02-06T00:24:40.708Z,104566.50
2023-02-06T00:27:26.751Z,104563.00
2023-02-06T00:30:12.923Z,104563.91
2023-02-06T00:32:59.650Z,104561.25
2023-02-06T00:35:45.489Z,104556.03
2023-02-06T00:38:33.582Z,104552.53
2023-02-06T00:41:19.394Z,104544.69
2023-02-06T00:44:05.315Z,104548.19
2023-02-06T00:46:51.081Z,104542.94
2023-02-06T00:49:37.533Z,104545.56
2023-02-06T00:52:23.278Z,104557.78
2023-02-06T00:55:10.288Z,104550.78
2023-02-06T00:57:56.169Z,104556.03
2023-02-06T01:00:41.964Z,104558.66
2023-02-06T01:03:27.953Z,104556.06
2023-02-06T01:06:13.843Z,104558.66
2023-02-06T01:08:59.663Z,104556.03
2023-02-06T01:11:48.669Z,104567.41
2023-02-06T01:14:34.422Z,104566.53
2023-02-06T01:17:20.065Z,104562.16
2023-02-06T01:20:06.466Z,104562.16
2023-02-06T01:22:52.322Z,104570.03
2023-02-06T01:25:38.165Z,104574.41
2023-02-06T01:28:25.700Z,104574.41
2023-02-06T01:31:12.069Z,104569.16
2023-02-06T01:33:58.415Z,104566.53
2023-02-06T01:36:44.358Z,104575.28
2023-02-06T01:39:30.422Z,104564.78
2023-02-06T01:42:16.647Z,104556.06
2023-02-06T01:45:20.296Z,104556.91
2023-02-06T01:48:07.035Z,104553.44
2023-02-06T01:50:53.653Z,104555.16
2023-02-06T01:53:40.156Z,104556.91
2023-02-06T01:56:25.957Z,104563.91
2023-02-06T01:59:11.788Z,104565.66
2023-02-06T02:01:59.525Z,104561.28
2023-02-06T02:04:45.240Z,104567.41
2023-02-06T02:07:32.821Z,104563.91
2023-02-06T02:10:18.915Z,104556.06
2023-02-06T02:13:04.754Z,104563.06
2023-02-06T02:15:53.139Z,104560.41
2023-02-06T02:18:44.335Z,104561.28
2023-02-06T02:21:49.142Z,104559.53
2023-02-06T02:24:41.015Z,104560.41
2023-02-06T02:27:41.995Z,104546.44
2023-02-06T02:30:45.878Z,104563.03
2023-02-06T02:33:36.246Z,104564.78
2023-02-06T02:36:24.860Z,104559.56
2023-02-06T02:39:13.178Z,104558.69
2023-02-06T02:41:59.717Z,104543.81
2023-02-06T02:44:47.283Z,104542.97
2023-02-06T02:47:34.250Z,104545.59
2023-02-06T02:50:20.042Z,104551.69
2023-02-06T02:53:07.546Z,104542.09
2023-02-06T02:55:53.616Z,104539.47
2023-02-06T02:58:41.454Z,104539.44
2023-02-06T03:01:28.080Z,104533.34
2023-02-06T03:04:15.450Z,104531.59
2023-02-06T03:07:04.544Z,104529.84
2023-02-06T03:09:54.709Z,104522.00
2023-02-06T03:12:42.881Z,104532.44
2023-02-06T03:15:32.510Z,104536.84
2023-02-06T03:18:19.692Z,104534.19
2023-02-06T03:21:06.056Z,104531.56
2023-02-06T03:23:52.817Z,104534.19
2023-02-06T03:26:40.145Z,104535.06
2023-02-06T03:29:26.030Z,104520.22
2023-02-06T03:32:12.288Z,104516.72
2023-02-06T03:34:59.133Z,104510.59
2023-02-06T03:37:44.928Z,104503.59
2023-02-06T03:40:31.034Z,104497.50
2023-02-06T03:43:18.810Z,104502.72
2023-02-06T03:46:05.421Z,104498.38
2023-02-06T03:48:53.172Z,104506.22
2023-02-06T03:51:40.147Z,104492.25
2023-02-06T03:54:26.333Z,104493.13
2023-02-06T03:57:13.383Z,104480.03
2023-02-06T04:00:00.518Z,104478.28
2023-02-06T04:02:47.367Z,104467.81
2023-02-06T04:05:33.185Z,104466.94
2023-02-06T04:08:19.433Z,104467.81
2023-02-06T04:11:05.397Z,104463.44
2023-02-06T04:13:51.039Z,104454.69
2023-02-06T04:16:38.212Z,104448.63
2023-02-06T04:19:24.029Z,104450.31
2023-02-06T04:22:10.292Z,104446.84
2023-02-06T04:24:56.402Z,104436.38
2023-02-06T04:27:42.187Z,104439.84
2023-02-06T04:30:27.985Z,104439.00
2023-02-06T04:33:15.214Z,104433.75
2023-02-06T04:36:01.114Z,104419.75
2023-02-06T04:38:47.079Z,104421.50
2023-02-06T04:41:32.806Z,104425.88
2023-02-06T04:44:18.462Z,104431.97
2023-02-06T04:47:04.241Z,104425.00
2023-02-06T04:49:51.409Z,104431.09
2023-02-06T04:52:37.331Z,104423.22
2023-02-06T04:55:23.531Z,104404.91
2023-02-06T04:58:09.517Z,104408.38
2023-02-06T05:00:55.478Z,104404.91
2023-02-06T05:03:41.460Z,104405.78
2023-02-06T05:06:29.607Z,104403.13
2023-02-06T05:09:15.427Z,104403.13
2023-02-06T05:12:01.284Z,104399.63
2023-02-06T05:14:47.097Z,104401.38
2023-02-06T05:17:32.844Z,104401.34
2023-02-06T05:20:19.642Z,104402.22
2023-02-06T05:23:06.675Z,104389.97
2023-02-06T05:25:53.135Z,104394.34
2023-02-06T05:28:38.833Z,104388.22
2023-02-06T05:31:25.251Z,104395.19
2023-02-06T05:34:11.261Z,104391.72
2023-02-06T05:36:56.960Z,104389.06
2023-02-06T05:39:44.153Z,104389.03
2023-02-06T05:42:29.984Z,104392.53
2023-02-06T05:45:15.980Z,104401.22
2023-02-06T05:48:01.833Z,104392.50
2023-02-06T05:50:48.980Z,104389.84
2023-02-06T05:53:35.220Z,104392.50
2023-02-06T05:56:22.689Z,104395.06
2023-02-06T05:59:08.446Z,104393.34
2023-02-06T06:01:54.251Z,104381.97
2023-02-06T06:04:40.206Z,104386.31
2023-02-06T06:07:26.337Z,104380.19
2023-02-06T06:10:12.141Z,104386.28
2023-02-06T06:12:59.821Z,104395.00
2023-02-06T06:15:45.740Z,104415.88
2023-02-06T06:18:31.509Z,104408.91
2023-02-06T06:21:17.736Z,104400.19
2023-02-06T06:24:03.917Z,104404.53
2023-02-06T06:26:49.737Z,104401.06
2023-02-06T06:29:36.960Z,104401.94
2023-02-06T06:32:23.201Z,104410.63
2023-02-06T06:38:11.234Z,104402.72
2023-02-06T06:40:56.936Z,104417.59
2023-02-06T06:43:43.159Z,104410.63
2023-02-06T06:46:30.551Z,104416.72
2023-02-06T06:49:16.722Z,104430.66
2023-02-06T06:52:03.645Z,104417.59
2023-02-06T06:54:52.308Z,104431.53
2023-02-06T06:57:38.637Z,104432.41
2023-02-06T07:00:24.782Z,104434.13
2023-02-06T07:03:12.601Z,104437.63
2023-02-06T07:05:58.497Z,104443.72
2023-02-06T07:08:44.478Z,104440.25
2023-02-06T07:11:30.248Z,104437.63
2023-02-06T07:14:16.265Z,104439.38
2023-02-06T07:17:01.982Z,104448.94
2023-02-06T07:19:51.419Z,104459.41
2023-02-06T07:22:37.077Z,104463.78
2023-02-06T07:25:23.066Z,104464.69
2023-02-06T07:28:09.018Z,104481.25
2023-02-06T07:30:54.972Z,104487.41
2023-02-06T07:33:40.754Z,104478.69
2023-02-06T07:36:27.851Z,104488.28
2023-02-06T07:39:13.658Z,104474.34
2023-02-06T07:41:59.508Z,104474.34
2023-02-06T07:44:51.728Z,104478.69
2023-02-06T07:47:37.570Z,104487.41
2023-02-06T07:50:24.297Z,104493.50
2023-02-06T07:53:11.278Z,104492.66
2023-02-06T07:55:57.134Z,104500.50
2023-02-06T07:58:43.080Z,104508.38
2023-02-06T08:01:28.924Z,104507.50
2023-02-06T08:04:14.805Z,104506.69
2023-02-06T08:07:00.699Z,104511.03
2023-02-06T08:09:47.897Z,104516.28
2023-02-06T08:12:33.754Z,104517.16
2023-02-06T08:15:19.518Z,104521.56
2023-02-06T08:18:05.360Z,104519.81
2023-02-06T08:20:51.233Z,104517.25
2023-02-06T08:23:36.991Z,104526.88
2023-02-06T08:26:24.237Z,104526.88
2023-02-06T08:29:10.119Z,104531.25
2023-02-06T08:31:56.066Z,104544.38
2023-02-06T08:34:41.874Z,104541.78
2023-02-06T08:37:27.898Z,104537.50
2023-02-06T08:40:13.775Z,104537.50
2023-02-06T08:43:01.101Z,104541.00
2023-02-06T08:45:48.758Z,104534.94
2023-02-06T08:48:34.713Z,104545.44
2023-02-06T08:51:22.294Z,104548.97
2023-02-06T08:54:09.055Z,104550.72
2023-02-06T08:56:56.985Z,104551.63
2023-02-06T08:59:44.734Z,104549.88
2023-02-06T09:02:30.850Z,104553.41
2023-02-06T09:05:17.110Z,104551.66
2023-02-06T09:08:02.907Z,104547.31
2023-02-06T09:10:48.720Z,104543.81
2023-02-06T09:13:34.675Z,104544.72
2023-02-06T09:16:22.147Z,104552.56
2023-02-06T09:19:08.218Z,104546.44
2023-02-06T09:21:54.105Z,104542.94
2023-02-06T09:24:40.049Z,104545.56
2023-02-06T09:27:25.963Z,104545.53
2023-02-06T09:30:12.478Z,104542.03
2023-02-06T09:33:00.097Z,104550.75
2023-02-06T09:35:45.902Z,104542.00
2023-02-06T09:38:31.916Z,104538.47
2023-02-06T09:41:19.269Z,104537.53
2023-02-06T09:44:06.648Z,104529.66
2023-02-06T09:46:52.973Z,104536.63
2023-02-06T09:49:40.938Z,104538.34
2023-02-06T09:52:30.200Z,104535.69
2023-02-06T09:55:18.564Z,104535.66
2023-02-06T09:58:07.725Z,104538.25
2023-02-06T10:00:54.518Z,104526.88
2023-02-06T10:03:44.640Z,104530.34
2023-02-06T10:06:33.411Z,104519.78
2023-02-06T10:09:20.264Z,104510.13
2023-02-06T10:12:07.091Z,104510.94
2023-02-06T10:14:54.359Z,104502.16
2023-02-06T10:17:42.876Z,104493.34
2023-02-06T10:20:30.461Z,104495.97
2023-02-06T10:23:19.510Z,104488.06
2023-02-06T10:26:06.736Z,104479.22
2023-02-06T10:28:53.550Z,104478.34
2023-02-06T10:31:47.559Z,104461.63
2023-02-06T10:34:40.431Z,104441.41
2023-02-06T10:37:30.428Z,104429.94
2023-02-06T10:40:23.119Z,104415.94
2023-02-06T10:43:13.334Z,104403.56
2023-02-06T10:46:01.718Z,104395.63
2023-02-06T10:48:49.066Z,104385.91
2023-02-06T10:51:36.156Z,104385.84
2023-02-06T10:54:23.338Z,104375.31
2023-02-06T10:57:13.780Z,104363.00
2023-02-06T11:00:00.696Z,104343.63
2023-02-06T11:02:58.169Z,104328.69
2023-02-06T11:05:52.491Z,104314.53
2023-02-06T11:08:40.340Z,104303.09
2023-02-06T11:11:29.561Z,104300.41
2023-02-06T11:14:17.972Z,104280.22
2023-02-06T11:17:04.137Z,104269.69
2023-02-06T11:19:50.744Z,104250.28
2023-02-06T11:22:51.130Z,104236.06
2023-02-06T11:25:39.212Z,104223.72
2023-02-06T11:28:25.871Z,104217.47
2023-02-06T11:31:13.476Z,104194.63
2023-02-06T11:33:59.632Z,104171.00
2023-02-06T11:36:45.711Z,104148.09
2023-02-06T11:39:32.681Z,104130.44
2023-02-06T11:42:19.862Z,104110.13
2023-02-06T11:45:13.455Z,104089.78
2023-02-06T11:48:00.786Z,104068.25
2023-02-06T11:50:49.471Z,104052.09
2023-02-06T11:53:35.397Z,104037.97
2023-02-06T11:56:21.367Z,104020.34
2023-02-06T11:59:10.680Z,103996.56
2023-02-06T12:01:57.523Z,103972.66
2023-02-06T12:04:44.603Z,103937.41
2023-02-06T12:07:31.013Z,103908.59
2023-02-06T12:10:17.316Z,103881.44
2023-02-06T12:13:03.722Z,103856.84
2023-02-06T12:15:51.022Z,103828.69
2023-02-06T12:18:38.473Z,103809.31
2023-02-06T12:21:27.306Z,103795.25
2023-02-06T12:24:21.717Z,103753.38
2023-02-06T12:27:17.800Z,103735.63
2023-02-06T12:30:07.672Z,103728.56
2023-02-06T12:32:54.833Z,103699.81
2023-02-06T12:35:43.775Z,103674.56
2023-02-06T12:38:32.505Z,103652.56
2023-02-06T12:41:40.947Z,103631.19
2023-02-06T12:44:28.127Z,103606.56
2023-02-06T12:47:14.829Z,103588.56
2023-02-06T12:50:01.717Z,103577.19
2023-02-06T12:52:49.180Z,103561.91
2023-02-06T12:55:37.929Z,103556.38
2023-02-06T12:58:25.152Z,103548.97
2023-02-06T13:01:30.718Z,103543.47
2023-02-06T13:04:19.735Z,103523.44
2023-02-06T13:07:06.378Z,103501.19
2023-02-06T13:09:53.226Z,103472.19
2023-02-06T13:12:40.224Z,103454.38
2023-02-06T13:15:26.656Z,103441.50
2023-02-06T13:18:36.827Z,103421.22
2023-02-06T13:21:24.394Z,103395.78
2023-02-06T13:24:15.218Z,103390.63
2023-02-06T13:27:16.311Z,103378.03
2023-02-06T13:30:16.953Z,103356.03
2023-02-06T13:33:10.022Z,103349.81
2023-02-06T13:35:57.106Z,103341.56
2023-02-06T13:38:43.588Z,103326.41
2023-02-06T13:41:30.522Z,103301.13
2023-02-06T13:44:17.048Z,103290.38
2023-02-06T13:47:24.862Z,103286.75
2023-02-06T13:50:23.837Z,103290.13
2023-02-06T13:53:16.177Z,103301.31
2023-02-06T13:56:07.047Z,103299.47
2023-02-06T13:58:53.524Z,103307.91
2023-02-06T14:01:39.498Z,103311.38
2023-02-06T14:04:27.651Z,103312.66
2023-02-06T14:07:27.964Z,103307.63
2023-02-06T14:10:35.209Z,103313.78
2023-02-06T14:13:25.326Z,103314.75
2023-02-06T14:16:17.087Z,103313.41
2023-02-06T14:19:04.286Z,103315.66
2023-02-06T14:21:52.962Z,103314.06
2023-02-06T14:25:04.127Z,103324.06
2023-02-06T14:27:57.534Z,103328.28
2023-02-06T14:30:45.249Z,103320.84
2023-02-06T14:33:42.271Z,103314.44
2023-02-06T14:36:33.278Z,103327.56
2023-02-06T14:39:36.269Z,103314.56
2023-02-06T14:42:23.781Z,103327.88
2023-02-06T14:45:21.910Z,103325.41
2023-02-06T14:48:14.323Z,103315.78
2023-02-06T14:51:00.437Z,103317.75
2023-02-06T14:53:52.441Z,103332.38
2023-02-06T14:56:39.761Z,103332.38
2023-02-06T14:59:25.513Z,103350.28
2023-02-06T15:02:14.731Z,103353.75
2023-02-06T15:05:01.976Z,103380.22
2023-02-06T15:07:48.513Z,103380.53
2023-02-06T15:10:35.550Z,103390.84
2023-02-06T15:13:23.197Z,103394.38
2023-02-06T15:16:09.989Z,103406.78
2023-02-06T15:19:10.373Z,103414.06
2023-02-06T15:21:58.298Z,103427.25
2023-02-06T15:24:52.953Z,103442.25
2023-02-06T15:27:39.251Z,103461.59
2023-02-06T15:30:26.564Z,103478.47
2023-02-06T15:33:13.762Z,103488.34
2023-02-06T15:36:00.166Z,103506.75
2023-02-06T15:38:46.002Z,103522.66
2023-02-06T15:41:32.120Z,103532.44
2023-02-06T15:44:24.680Z,103551.84
2023-02-06T15:47:13.650Z,103572.03
2023-02-06T15:50:00.361Z,103578.25
2023-02-06T15:52:47.362Z,103600.25
2023-02-06T15:55:35.408Z,103619.63
2023-02-06T15:58:21.344Z,103640.66
2023-02-06T16:01:07.128Z,103660.06
2023-02-06T16:03:56.451Z,103680.28
2023-02-06T16:06:42.515Z,103692.69
2023-02-06T16:09:28.332Z,103693.75
2023-02-06T16:12:16.319Z,103709.59
2023-02-06T16:15:03.663Z,103722.88
2023-02-06T16:17:49.558Z,103729.13
2023-02-06T16:20:40.115Z,103737.16
2023-02-06T16:23:26.870Z,103746.88
2023-02-06T16:26:15.544Z,103761.00
2023-02-06T16:29:01.839Z,103769.94
2023-02-06T16:31:54.185Z,103778.88
2023-02-06T16:34:41.099Z,103789.41
2023-02-06T16:37:29.027Z,103800.91
2023-02-06T16:40:15.139Z,103808.00
2023-02-06T16:43:01.271Z,103810.69
2023-02-06T16:45:47.963Z,103813.38
2023-02-06T16:48:33.910Z,103816.97
2023-02-06T16:51:20.457Z,103824.94
2023-02-06T16:54:08.390Z,103829.34
2023-02-06T16:56:54.448Z,103850.41
2023-02-06T16:59:40.266Z,103860.94
2023-02-06T17:02:26.578Z,103863.63
2023-02-06T17:05:12.871Z,103872.44
2023-02-06T17:07:58.927Z,103884.72
2023-02-06T17:10:46.664Z,103895.25
2023-02-06T17:13:32.689Z,103910.16
2023-02-06T17:16:19.234Z,103921.53
2023-02-06T17:19:05.664Z,103939.88
2023-02-06T17:21:51.413Z,103953.00
2023-02-06T17:24:37.205Z,103967.88
2023-02-06T17:27:24.464Z,103981.84
2023-02-06T17:30:11.852Z,103994.09
2023-02-06T17:32:57.563Z,104008.09
2023-02-06T17:35:43.446Z,104024.66
2023-02-06T17:38:29.362Z,104036.03
2023-02-06T17:41:15.234Z,104047.34
2023-02-06T17:44:02.499Z,104056.97
2023-02-06T17:46:49.548Z,104077.91
2023-02-06T17:49:35.402Z,104084.84
2023-02-06T17:52:21.252Z,104093.59
2023-02-06T17:55:07.640Z,104101.44
2023-02-06T17:57:53.978Z,104110.13
2023-02-06T18:00:41.210Z,104115.34
2023-02-06T18:03:27.050Z,104128.38
2023-02-06T18:06:13.331Z,104133.59
2023-02-06T18:08:59.734Z,104137.97
2023-02-06T18:11:45.425Z,104130.09
2023-02-06T18:14:31.336Z,104139.66
2023-02-06T18:17:18.650Z,104144.88
2023-02-06T18:20:04.917Z,104149.22
2023-02-06T18:22:50.537Z,104151.78
2023-02-06T18:25:39.082Z,104154.38
2023-02-06T18:28:25.057Z,104175.25
2023-02-06T18:31:20.750Z,104178.75
2023-02-06T18:34:08.776Z,104182.16
2023-02-06T18:36:55.383Z,104190.84
2023-02-06T18:39:41.261Z,104199.53
2023-02-06T18:42:45.088Z,104216.94
2023-02-06T18:45:34.337Z,104223.84
2023-02-06T18:48:19.983Z,104219.47
2023-02-06T18:51:08.744Z,104229.03
2023-02-06T18:53:54.705Z,104233.34
2023-02-06T18:56:40.456Z,104238.56
2023-02-06T18:59:26.753Z,104250.66
2023-02-06T19:02:13.227Z,104256.75
2023-02-06T19:04:59.598Z,104270.66
2023-02-06T19:07:50.528Z,104278.44
2023-02-06T19:10:36.659Z,104281.88
2023-02-06T19:13:22.814Z,104282.69
2023-02-06T19:16:09.344Z,104289.63
2023-02-06T19:18:55.536Z,104288.75
2023-02-06T19:21:41.416Z,104285.25
2023-02-06T19:24:30.546Z,104296.53
2023-02-06T19:27:16.412Z,104300.88
2023-02-06T19:30:02.265Z,104294.78
2023-02-06T19:32:48.693Z,104291.22
2023-02-06T19:35:34.964Z,104294.69
2023-02-06T19:38:21.613Z,104292.94
2023-02-06T19:41:09.257Z,104305.94
2023-02-06T19:43:55.911Z,104309.38
2023-02-06T19:46:42.010Z,104301.50
2023-02-06T19:49:27.928Z,104303.22
2023-02-06T19:52:14.406Z,104314.50
2023-02-06T19:55:00.482Z,104313.56
2023-02-06T19:57:47.644Z,104317.88
2023-02-06T20:00:33.530Z,104317.81
2023-02-06T20:03:19.289Z,104324.81
2023-02-06T20:06:05.857Z,104321.28
2023-02-06T20:08:51.835Z,104321.25
2023-02-06T20:11:37.928Z,104314.28
2023-02-06T20:14:25.808Z,104323.84
2023-02-06T20:17:12.086Z,104329.91
2023-02-06T20:19:59.098Z,104335.94
2023-02-06T20:22:45.091Z,104337.63
2023-02-06T20:25:31.240Z,104346.25
2023-02-06T20:28:17.489Z,104354.94
2023-02-06T20:31:09.294Z,104363.56
2023-02-06T20:33:55.941Z,104364.38
2023-02-06T20:36:42.610Z,104367.88
2023-02-06T20:39:28.802Z,104360.03
2023-02-06T20:42:17.243Z,104365.22
2023-02-06T20:45:03.346Z,104367.81
2023-02-06T20:47:50.414Z,104376.50
2023-02-06T20:50:36.720Z,104371.25
2023-02-06T20:53:22.988Z,104372.91
2023-02-06T20:56:09.662Z,104374.63
2023-02-06T20:58:56.268Z,104368.53
2023-02-06T21:01:42.593Z,104372.81
2023-02-06T21:04:32.310Z,104371.03
2023-02-06T21:07:20.438Z,104370.13
2023-02-06T21:10:06.699Z,104362.25
2023-02-06T21:12:52.758Z,104365.66
2023-02-06T21:15:38.460Z,104365.63
2023-02-06T21:18:24.679Z,104360.41
2023-02-06T21:21:12.583Z,104367.31
2023-02-06T21:23:58.668Z,104362.94
2023-02-06T21:26:44.969Z,104369.00
2023-02-06T21:29:30.784Z,104374.13
2023-02-06T21:32:16.639Z,104366.28
2023-02-06T21:35:02.558Z,104370.59
2023-02-06T21:37:49.633Z,104373.81
2023-02-06T21:40:35.546Z,104375.50
2023-02-06T21:43:21.415Z,104378.13
2023-02-06T21:46:07.274Z,104388.50
2023-02-06T21:48:53.725Z,104383.28
2023-02-06T21:51:39.598Z,104377.22
2023-02-06T21:54:26.766Z,104376.28
2023-02-06T21:57:12.680Z,104377.94
2023-02-06T21:59:58.430Z,104375.25
2023-02-06T22:02:44.276Z,104371.66
2023-02-06T22:05:30.208Z,104381.16
2023-02-06T22:08:16.425Z,104375.97
2023-02-06T22:11:09.907Z,104388.09
2023-02-06T22:14:05.421Z,104389.78
2023-02-06T22:16:52.303Z,104388.84
2023-02-06T22:19:56.073Z,104398.38
2023-02-06T22:22:44.654Z,104394.88
2023-02-06T22:25:30.451Z,104398.31
2023-02-06T22:28:22.983Z,104405.16
2023-02-06T22:31:11.953Z,104411.13
2023-02-06T22:34:06.902Z,104414.63
2023-02-06T22:36:52.778Z,104426.69
2023-02-06T22:39:38.731Z,104425.75
2023-02-06T22:42:24.602Z,104424.84
2023-02-06T22:45:11.948Z,104425.69
2023-02-06T22:47:58.025Z,104429.97
2023-02-06T22:50:44.008Z,104429.91
2023-02-06T22:53:29.211Z,104435.97
2023-02-06T22:56:31.211Z,104441.97
2023-02-06T22:59:18.132Z,104435.72
2023-02-06T23:02:05.656Z,104432.25
2023-02-06T23:04:51.748Z,104431.31
2023-02-06T23:07:37.635Z,104432.13
2023-02-06T23:10:23.460Z,104438.06
2023-02-06T23:13:09.343Z,104442.38
2023-02-06T23:15:55.581Z,104448.28
2023-02-06T23:18:43.047Z,104446.53
2023-02-06T23:21:28.775Z,104445.66
2023-02-06T23:24:14.810Z,104448.22
2023-02-06T23:27:01.055Z,104451.69
2023-02-06T23:29:46.650Z,104446.38
2023-02-06T23:32:32.943Z,104450.59
2023-02-06T23:35:20.134Z,104450.59
2023-02-06T23:38:06.342Z,104440.16
2023-02-06T23:40:52.209Z,104442.81
2023-02-06T23:43:38.204Z,104454.91
2023-02-06T23:46:24.563Z,104452.31
2023-02-06T23:49:10.976Z,104456.59
2023-02-06T23:51:58.309Z,104451.28
2023-02-06T23:54:44.038Z,104451.97
2023-02-06T23:57:29.940Z,104447.59
